FCBB

Maya-Maya Airport

Brazzaville, Congo
METAR FCBB 200000Z 00000KT 9000 NSC 25/21 Q1012 NOSIG
Observed Flight Rules
Sep-20 @ 00:00 UTC (41 minutes ago) Visual Flight Rules
Visibility Clouds
8,996 meters
  • Clear skies
Temperatures Readings
Current 25°C / 77°F
Dewpoint 21°C / 70°F
Humidity 79%
Altimeter 29.88" Hg
Pressure 1012 hPa
Elevation 316
METAR FCBB 200000Z 00000KT 9000 NSC 25/21 Q1012 NOSIG
Observed Flight Rules
Sep-20 @ 00:00 UTC
(41 minutes ago)
VFR
Clouds
  • Clear skies
Temperature Dewpoint
25°C / 77°F 21°C / 70°F
Humidity Altimeter Pressure
79% 29.88" Hg 1012 hPa